»·PEaware :: TGGYM KVCV-KBFL

TGGYM :: KVCV-KBFL

FLIGHT INFORMATION

Flight Status: Arrived
Operator: Unknown
More flights by this operator :: More flights under this callsign
Pilot: Guillermo H. (8711)
Aircraft: BEECH AIRCRAFT DUCHESS
(BE76)
More flights by this aircraft type
Origin: KVCV Socal Logistics
United States
Destination: KBFL Meadows
United States
More flights between these airports :: More routes between these airports
Route: +
File this flight plan on PilotEdge
Remarks:
Altitude:
(Current/Filed)
10,500ft
Speed:
(Current/Filed)
0kts
Departed: 07-Sep-20 07:57 PM
Arrived: 07-Sep-20 08:44 PM
Distance/Time
Traveled:
96nm/0:47
Distance/Time
To Go:
Arrived

Flight Plot

Page will automatically refresh every two minutes.


Map Options




Map Legend


Flown Route
Filed Route
Departure Airport
Arrival Airport
Navaid (VOR, NDB)
Fix

Horizontal Profiles

Position Reports

Time Latitude Longitude Heading Altitude Ground
Speed
07-Sep-20 19:55 34.385632 -117.162753 308 10213ft 158kts
07-Sep-20 19:56 34.414507 -117.200321 308 10604ft 135kts
07-Sep-20 19:57 34.442388 -117.236203 308 10650ft 154kts
07-Sep-20 19:58 34.472170 -117.274945 308 10650ft 159kts
07-Sep-20 19:59 34.503204 -117.315581 308 10648ft 166kts
07-Sep-20 20:00 34.534674 -117.356884 308 10648ft 167kts
07-Sep-20 20:01 34.565981 -117.398947 304 10641ft 167kts
07-Sep-20 20:02 34.593381 -117.444433 302 10631ft 167kts
07-Sep-20 20:03 34.620499 -117.490871 302 10621ft 168kts
07-Sep-20 20:04 34.647314 -117.537618 302 10611ft 169kts
07-Sep-20 20:05 34.673898 -117.584829 302 10600ft 169kts
07-Sep-20 20:06 34.700322 -117.632498 302 10595ft 170kts
07-Sep-20 20:07 34.726748 -117.680194 301 10592ft 169kts
07-Sep-20 20:08 34.754263 -117.724881 301 10583ft 161kts
07-Sep-20 20:09 34.781682 -117.767925 301 10575ft 160kts
07-Sep-20 20:10 34.809145 -117.811068 301 10566ft 161kts
07-Sep-20 20:11 34.836745 -117.854531 301 10557ft 162kts
07-Sep-20 20:12 34.864587 -117.898493 301 10548ft 164kts
07-Sep-20 20:13 34.888041 -117.944474 294 10542ft 162kts
07-Sep-20 20:14 34.910971 -117.991642 294 10547ft 161kts
07-Sep-20 20:15 34.933462 -118.038994 295 10555ft 160kts
07-Sep-20 20:16 34.953934 -118.086861 286 10566ft 157kts
07-Sep-20 20:17 34.969015 -118.136759 286 10590ft 156kts
07-Sep-20 20:18 34.983861 -118.186315 289 10619ft 155kts
07-Sep-20 20:19 35.002082 -118.234309 292 10651ft 155kts
07-Sep-20 20:20 35.022156 -118.280859 297 10688ft 154kts
07-Sep-20 20:21 35.042789 -118.326879 297 10727ft 154kts
07-Sep-20 20:22 35.064261 -118.372432 300 10729ft 155kts
07-Sep-20 20:24 35.086313 -118.416560 300 10858ft 152kts
07-Sep-20 20:25 35.108664 -118.461304 300 10856ft 155kts
07-Sep-20 20:26 35.130967 -118.505959 300 10856ft 155kts
07-Sep-20 20:27 35.153457 -118.550973 300 10856ft 155kts
07-Sep-20 20:28 35.176230 -118.596507 300 10286ft 160kts
07-Sep-20 20:29 35.199418 -118.642617 300 9275ft 154kts
07-Sep-20 20:30 35.211673 -118.680994 278 8413ft 139kts
07-Sep-20 20:31 35.218287 -118.726637 284 7452ft 134kts
07-Sep-20 20:32 35.231752 -118.770114 289 6558ft 136kts
07-Sep-20 20:33 35.245391 -118.813553 289 5659ft 136kts
07-Sep-20 20:34 35.267738 -118.849971 314 4757ft 135kts
07-Sep-20 20:35 35.293322 -118.880935 311 3851ft 125kts
07-Sep-20 20:36 35.317113 -118.911731 311 3023ft 124kts
07-Sep-20 20:37 35.337308 -118.942664 310 2751ft 111kts
07-Sep-20 20:38 35.360538 -118.967953 314 2454ft 118kts
07-Sep-20 20:39 35.380333 -118.991556 313 1948ft 78kts
07-Sep-20 20:39 35.392573 -119.006309 314 1611ft 69kts
07-Sep-20 20:41 35.408015 -119.024941 315 1218ft 66kts
07-Sep-20 20:42 35.421870 -119.041681 316 824ft 67kts
07-Sep-20 20:42 35.433196 -119.055414 316 517ft 58kts
07-Sep-20 20:44 35.436106 -119.056746 126 509ft 16kts
07-Sep-20 20:44 35.432454 -119.052284 134 509ft 21kts
07-Sep-20 20:45 35.428524 -119.047593 114 509ft 5kts
07-Sep-20 20:46 35.429427 -119.046484 118 509ft 1kts
07-Sep-20 20:47 35.429402 -119.046426 117 509ft 0kts
07-Sep-20 20:48 35.429402 -119.046426 117 509ft 0kts

Navigation Log

Ident Type
Flight plan parsing failed, navigation log unavailable